Niagara Falls International Airport
KIAG : now visible

Airfield :











YOU CAN JOIN US ON...

 
LOGIN :

Register | Disclaimer

   EN    FR    IT 

 









Legend :    VFR   Marginal VFR   IFR   Intensive IFR   Very Intensive IFR
Visi :
Ceiling :
>= 8 km
>= 3000ft
5 to 8 km
1000 to 3000 ft
1500m to 5 km
500 to 1000 ft
800 to 1500m
200 to 500 ft
< 800m
< 200 ft
Symbols :   Thunderstorms  Fog  Heavy snow  Heavy precipitations  Wind > 20 kt






- Airport Elevation : 589 ft
- IATA code : IAG


KIAG - Niagara Falls International

CURRENT METAR :
  • 212353Z 27003KT 10SM BKN029 BKN034 11/08 A3022 RMK AO2 SLP237 T01110078 10178 20106 53023

EXPIRED METARs :
  • 212253Z 29003KT 10SM BKN029 BKN033 12/08 A3019 RMK AO2 SLP227 T01220083
  • 212153Z 29007KT 10SM BKN037 13/09 A3017 RMK AO2 SLP220 T01330094
  • 212100Z 31009KT 10SM BKN034 15/10 A3016 RMK AO2 T01500100

TAF KIAG
Valid from the 22 at 00:00 until the 23 at 00:00 UTC


212343Z 2200/2224 29004KT P6SM BKN035
TEMPO 2200/2202 BKN025
FM220200 VRB03KT P6SM SCT035 OVC220
FM221200 06004KT P6SM VCSH OVC040
FM221500 05006KT P6SM VCSH BKN025
FM221800 06006KT P6SM BKN015
FM222200 09008KT P6SM BKN040
KZOB FIR / North America



MET'MAP, your aeronautical weather chart ! - Copyright ORBIFLY December 2007 - Disclaimer

ORBIFLY MET'MAP TEAM :

Programming & Development : Alexandra Zaïnal
Concept & original design : Baudouin d'Aumeries
Assistance for programming : Marc-Olivier Méhu
Technical & hardware support : Manuel Goepfert

Contact : metmap@orbifly.com




SOURCES & CREDITS :

   NOAA       Earth
Advisory